Tropical Cyclones
[Index]
Main Index Home Page Stock Weather Photos Extreme Storms Discussion Storm News and Storm Chasing Reports Tropical Cyclones / Hurricanes / Typhoons Weather Data and Links Wild Fires / Bushfires Weather Observation Techniques Weather Picture Catalogue Tornado Pictures and Reports Stock Video Footage and DVDs for sale
Season 2014-2015 Tropical Cyclone JOALANE Track Map
Season 2014-2015 Summaries: [BoM-AU] [JTWC-AU] [JTWC-SIO] [JTWC-SPAC] [JTWC-SH]
<<- Previous TC | JTWC 2014-2015 Season | Next TC ->>

click for intensity scale information  Lat/long Grid: Show Hide

 Date Labels: Show Hide

Joint Typhoon Warning Centre Cyclone Data

Name: JOALANE

05 Apr 2015 06:00 UTC to 14 Apr 2015 12:00 UTC

    date/time    lat    long     hPa   cat  kts
2015-04-05 06   15.5    65.6    1004         25          
2015-04-05 12   15.2    64.6    1000         30          
2015-04-05 18   14.9    63.9     996         35          
2015-04-06 00   14.7    63.2     996         35          
2015-04-06 06   14.5    62.6     993    1    40          
2015-04-06 12   14.3    62.2     989    1    45          
2015-04-06 18   13.9    62.1     993    1    40          
2015-04-07 00   13.6    62.3     989    1    45          
2015-04-07 03   13.7    62.8     985    1    50          
2015-04-07 06   14.0    62.7     974    2    65          
2015-04-07 06   14.0    62.7     974    2    65          
2015-04-07 12   14.3    62.8     967    3    75          
2015-04-07 12   14.3    62.8     967    3    75          
2015-04-07 12   14.3    62.8     967    3    75          
2015-04-07 15   14.4    63.0     967    3    75          
2015-04-07 15   14.4    63.0     967    3    75          
2015-04-07 15   14.4    63.0     967    3    75          
2015-04-07 18   14.6    63.2     956    3    90          
2015-04-07 18   14.6    63.2     956    3    90          
2015-04-07 18   14.6    63.2     956    3    90          
2015-04-08 00   14.5    63.4     956    3    90          
2015-04-08 00   14.5    63.4     956    3    90          
2015-04-08 00   14.5    63.4     956    3    90          
2015-04-08 06   14.6    64.0     959    3    85          
2015-04-08 06   14.6    64.0     959    3    85          
2015-04-08 06   14.6    64.0     959    3    85          
2015-04-08 09   14.9    64.5     959    3    85          
2015-04-08 09   14.9    64.5     959    3    85          
2015-04-08 09   14.9    64.5     959    3    85          
2015-04-08 12   15.2    64.8     959    3    85          
2015-04-08 12   15.2    64.8     959    3    85          
2015-04-08 12   15.2    64.8     959    3    85          
2015-04-08 18   15.8    65.1     963    3    80          
2015-04-08 18   15.8    65.1     963    3    80          
2015-04-08 18   15.8    65.1     963    3    80          
2015-04-09 00   16.1    65.3     963    3    80          
2015-04-09 00   16.1    65.3     963    3    80          
2015-04-09 00   16.1    65.3     963    3    80          
2015-04-09 06   16.5    65.6     967    3    75          
2015-04-09 06   16.5    65.6     967    3    75          
2015-04-09 06   16.5    65.6     967    3    75          
2015-04-09 12   17.0    65.7     967    3    75          
2015-04-09 12   17.0    65.7     967    3    75          
2015-04-09 12   17.0    65.7     967    3    75          
2015-04-09 18   17.6    65.8     967    3    75          
2015-04-09 18   17.6    65.8     967    3    75          
2015-04-09 18   17.6    65.8     967    3    75          
2015-04-10 00   18.1    65.9     967    3    75          
2015-04-10 00   18.1    65.9     967    3    75          
2015-04-10 00   18.1    65.9     967    3    75          
2015-04-10 06   18.5    66.3     967    3    75          
2015-04-10 06   18.5    66.3     967    3    75          
2015-04-10 06   18.5    66.3     967    3    75          
2015-04-10 12   18.9    66.5     967    3    75          
2015-04-10 12   18.9    66.5     967    3    75          
2015-04-10 12   18.9    66.5     967    3    75          
2015-04-10 18   19.4    66.9     967    3    75          
2015-04-10 18   19.4    66.9     967    3    75          
2015-04-10 18   19.4    66.9     967    3    75          
2015-04-11 00   20.2    67.4     959    3    85          
2015-04-11 00   20.2    67.4     959    3    85          
2015-04-11 00   20.2    67.4     959    3    85          
2015-04-11 06   21.1    67.7     963    3    80          
2015-04-11 06   21.1    67.7     963    3    80          
2015-04-11 06   21.1    67.7     963    3    80          
2015-04-11 12   21.8    67.9     963    3    80          
2015-04-11 12   21.8    67.9     963    3    80          
2015-04-11 12   21.8    67.9     963    3    80          
2015-04-11 18   23.3    68.1     967    3    75          
2015-04-11 18   23.3    68.1     967    3    75          
2015-04-11 18   23.3    68.1     967    3    75          
2015-04-12 00   24.6    68.2     974    2    65          
2015-04-12 00   24.6    68.2     974    2    65          
2015-04-12 00   24.6    68.2     974    2    65          
2015-04-12 06   25.9    67.8     978    2    60          
2015-04-12 06   25.9    67.8     978    2    60          
2015-04-12 12   26.8    67.5     982    2    55          
2015-04-12 12   26.8    67.5     982    2    55          
2015-04-12 18   27.6    66.9     985    1    50          
2015-04-12 18   27.6    66.9     985    1    50          
2015-04-13 00   28.3    66.3     985    1    50          
2015-04-13 06   29.0    65.3     985    1    50          
2015-04-13 12   29.5    65.5     985    1    50          
2015-04-13 18   30.6    65.8     985    1    50          
2015-04-14 00   31.9    66.5     985    1    50          
2015-04-14 06   33.0    67.4     982    2    55          
2015-04-14 12   34.4    69.2     982    2    55          
Winds are 1-min average.

Tropical cyclone tracks developed by Michael Bath using data from the Joint Typhoon Warning Centre Best Tracks and Google Maps.


[Australian Severe Weather index] [Copyright Notice] [Email Contacts] [Search This Site] [Privacy Policy]
Document: tropical_cyclone_joalane.htm Updated: 28 June 2017